createdAt,value
2019-05-10T00:00:25.529Z,100294.45
2019-05-10T00:03:13.244Z,100306.27
2019-05-10T00:06:00.975Z,100308.44
2019-05-10T00:08:45.338Z,100314.55
2019-05-10T00:11:39.745Z,100311.87
2019-05-10T00:14:33.637Z,100311.00
2019-05-10T00:17:18.021Z,100311.59
2019-05-10T00:19:48.162Z,100317.80
2019-05-10T00:22:18.453Z,100318.30
2019-05-10T00:25:02.067Z,100322.25
2019-05-10T00:27:20.730Z,100314.38
2019-05-10T00:29:50.961Z,100319.63
2019-05-10T00:32:21.167Z,100318.30
2019-05-10T00:34:51.330Z,100315.68
2019-05-10T00:37:21.549Z,100314.77
2019-05-10T00:39:51.641Z,100310.84
2019-05-10T00:42:22.160Z,100308.67
2019-05-10T00:44:52.333Z,100312.20
2019-05-10T00:47:22.569Z,100314.45
2019-05-10T00:49:52.881Z,100316.76
2019-05-10T00:52:34.727Z,100317.23
2019-05-10T00:55:19.006Z,100317.75
2019-05-10T00:57:43.773Z,100320.42
2019-05-10T01:00:14.045Z,100327.03
2019-05-10T01:02:44.197Z,100325.30
2019-05-10T01:05:14.435Z,100331.00
2019-05-10T01:07:44.746Z,100331.42
2019-05-10T01:10:15.098Z,100332.31
2019-05-10T01:12:45.243Z,100325.27
2019-05-10T01:15:15.567Z,100328.34
2019-05-10T01:17:45.668Z,100331.41
2019-05-10T01:20:15.914Z,100334.94
2019-05-10T01:22:46.038Z,100339.33
2019-05-10T01:25:16.283Z,100335.44
2019-05-10T01:27:46.527Z,100342.00
2019-05-10T01:30:17.321Z,100338.97
2019-05-10T01:32:47.503Z,100339.42
2019-05-10T01:35:17.734Z,100349.05
2019-05-10T01:37:48.031Z,100341.22
2019-05-10T01:40:18.376Z,100345.16
2019-05-10T01:42:48.546Z,100343.40
2019-05-10T01:45:19.088Z,100346.92
2019-05-10T01:47:49.173Z,100342.53
2019-05-10T01:50:19.459Z,100348.16
2019-05-10T01:52:49.681Z,100354.30
2019-05-10T01:55:19.850Z,100349.50
2019-05-10T01:57:50.605Z,100349.47
2019-05-10T02:00:21.099Z,100353.39
2019-05-10T02:02:51.322Z,100354.71
2019-05-10T02:05:21.541Z,100355.61
2019-05-10T02:07:51.797Z,100351.72
2019-05-10T02:10:22.088Z,100359.17
2019-05-10T02:12:52.626Z,100358.31
2019-05-10T02:15:22.868Z,100360.03
2019-05-10T02:17:53.185Z,100354.80
2019-05-10T02:20:23.411Z,100355.69
2019-05-10T02:22:53.549Z,100360.48
2019-05-10T02:25:23.752Z,100365.32
2019-05-10T02:27:53.891Z,100359.22
2019-05-10T02:30:24.217Z,100360.52
2019-05-10T02:32:54.420Z,100364.42
2019-05-10T02:35:24.571Z,100370.98
2019-05-10T02:37:54.893Z,100364.02
2019-05-10T02:40:25.445Z,100362.28
2019-05-10T02:42:55.723Z,100364.50
2019-05-10T02:45:26.081Z,100371.92
2019-05-10T02:47:56.264Z,100376.75
2019-05-10T02:50:26.443Z,100385.06
2019-05-10T02:52:56.737Z,100381.99
2019-05-10T02:55:27.432Z,100391.62
2019-05-10T02:57:57.974Z,100386.41
2019-05-10T03:00:28.952Z,100385.13
2019-05-10T03:03:00.665Z,100386.48
2019-05-10T03:05:34.175Z,100388.23
2019-05-10T03:08:04.974Z,100396.13
2019-05-10T03:10:38.651Z,100397.89
2019-05-10T03:13:11.771Z,100406.64
2019-05-10T03:15:45.019Z,100405.21
2019-05-10T03:18:15.651Z,100410.94
2019-05-10T03:20:48.832Z,100402.65
2019-05-10T03:23:19.747Z,100414.48
2019-05-10T03:25:50.034Z,100422.34
2019-05-10T03:28:20.194Z,100419.75
2019-05-10T03:30:50.569Z,100424.09
2019-05-10T03:33:20.805Z,100433.27
2019-05-10T03:35:51.041Z,100434.14
2019-05-10T03:38:21.839Z,100438.09
2019-05-10T03:40:52.361Z,100441.53
2019-05-10T03:43:22.801Z,100448.97
2019-05-10T03:45:53.021Z,100449.45
2019-05-10T03:48:23.275Z,100446.87
2019-05-10T03:50:53.552Z,100445.59
2019-05-10T03:53:23.882Z,100448.23
2019-05-10T03:55:54.094Z,100448.25
2019-05-10T03:58:24.381Z,100451.33
2019-05-10T04:00:54.611Z,100465.73
2019-05-10T04:03:24.777Z,100463.11
2019-05-10T04:05:54.998Z,100470.97
2019-05-10T04:08:25.205Z,100468.34
2019-05-10T04:10:55.429Z,100468.78
2019-05-10T04:13:25.610Z,100469.70
2019-05-10T04:15:56.166Z,100484.55
2019-05-10T04:18:26.271Z,100478.90
2019-05-10T04:20:56.493Z,100486.73
2019-05-10T04:23:26.744Z,100488.94
2019-05-10T04:25:57.076Z,100489.80
2019-05-10T04:28:27.258Z,100495.03
2019-05-10T04:30:57.374Z,100496.38
2019-05-10T04:33:27.594Z,100497.68
2019-05-10T04:35:57.898Z,100507.27
2019-05-10T04:38:28.063Z,100503.34
2019-05-10T04:40:58.305Z,100507.24
2019-05-10T04:43:28.395Z,100518.17
2019-05-10T04:45:58.526Z,100521.23
2019-05-10T04:48:28.831Z,100517.72
2019-05-10T04:50:58.928Z,100516.88
2019-05-10T04:53:29.175Z,100527.78
2019-05-10T04:55:59.373Z,100519.47
2019-05-10T04:58:29.493Z,100522.95
2019-05-10T05:00:59.720Z,100527.33
2019-05-10T05:03:29.953Z,100536.03
2019-05-10T05:06:00.170Z,100529.50
2019-05-10T05:08:30.373Z,100537.77
2019-05-10T05:11:00.689Z,100546.51
2019-05-10T05:13:31.084Z,100546.06
2019-05-10T05:16:01.266Z,100549.13
2019-05-10T05:18:31.371Z,100552.59
2019-05-10T05:21:01.640Z,100560.91
2019-05-10T05:23:31.803Z,100559.61
2019-05-10T05:26:02.181Z,100566.59
2019-05-10T05:28:32.458Z,100565.30
2019-05-10T05:31:02.590Z,100576.65
2019-05-10T05:33:32.816Z,100571.84
2019-05-10T05:36:02.998Z,100575.34
2019-05-10T05:38:33.174Z,100581.88
2019-05-10T05:41:03.424Z,100584.93
2019-05-10T05:43:33.725Z,100582.30
2019-05-10T05:46:04.020Z,100589.29
2019-05-10T05:48:40.512Z,100600.66
2019-05-10T05:51:07.082Z,100604.14
2019-05-10T05:53:42.410Z,100604.14
2019-05-10T05:56:13.054Z,100604.16
2019-05-10T05:58:45.220Z,100610.26
2019-05-10T06:01:24.680Z,100611.11
2019-05-10T06:03:47.738Z,100615.89
2019-05-10T06:06:21.769Z,100629.43
2019-05-10T06:08:54.439Z,100625.92
2019-05-10T06:11:21.805Z,100630.75
2019-05-10T06:13:52.228Z,100631.17
2019-05-10T06:16:22.434Z,100638.16
2019-05-10T06:18:52.521Z,100644.25
2019-05-10T06:21:25.222Z,100642.48
2019-05-10T06:23:54.727Z,100652.53
2019-05-10T06:26:28.549Z,100659.51
2019-05-10T06:29:01.401Z,100659.52
2019-05-10T06:31:28.871Z,100664.31
2019-05-10T06:33:59.123Z,100662.98
2019-05-10T06:36:29.321Z,100671.28
2019-05-10T06:38:59.597Z,100671.25
2019-05-10T06:41:32.519Z,100669.49
2019-05-10T06:46:31.186Z,100686.53
2019-05-10T06:51:03.009Z,100690.41
2019-05-10T06:53:33.721Z,100691.32
2019-05-10T06:56:04.225Z,100706.63
2019-05-10T06:58:36.486Z,100711.47
2019-05-10T07:01:06.537Z,100713.69
2019-05-10T07:03:36.782Z,100715.88
2019-05-10T07:06:06.956Z,100730.76
2019-05-10T07:08:44.180Z,100721.61
2019-05-10T07:11:09.004Z,100732.53
2019-05-10T07:13:40.337Z,100739.55
2019-05-10T07:16:14.568Z,100736.91
2019-05-10T07:18:43.358Z,100732.54
2019-05-10T07:21:13.653Z,100742.59
2019-05-10T07:23:45.198Z,100748.27
2019-05-10T07:26:17.613Z,100753.06
2019-05-10T07:28:51.794Z,100750.45
2019-05-10T07:31:23.439Z,100766.19
2019-05-10T07:33:51.805Z,100767.05
2019-05-10T07:36:27.243Z,100767.50
2019-05-10T07:38:54.044Z,100774.04
2019-05-10T07:41:26.556Z,100784.09
2019-05-10T07:44:00.583Z,100791.52
2019-05-10T07:46:28.173Z,100792.83
2019-05-10T07:48:58.408Z,100803.75
2019-05-10T07:51:30.215Z,100807.23
2019-05-10T07:54:04.746Z,100815.95
2019-05-10T07:56:32.693Z,100815.08
2019-05-10T07:59:02.912Z,100822.97
2019-05-10T08:01:34.962Z,100825.60
2019-05-10T08:04:05.011Z,100829.11
2019-05-10T08:06:44.403Z,100833.03
2019-05-10T08:09:09.766Z,100841.80
2019-05-10T08:11:40.096Z,100843.95
2019-05-10T08:14:11.393Z,100833.03
2019-05-10T08:16:41.678Z,100846.14
2019-05-10T08:19:11.848Z,100847.88
2019-05-10T08:21:42.111Z,100851.37
2019-05-10T08:24:16.095Z,100851.34
2019-05-10T08:26:44.177Z,100860.52
2019-05-10T08:29:16.951Z,100864.84
2019-05-10T08:31:52.836Z,100866.09
2019-05-10T08:34:18.322Z,100868.60
2019-05-10T08:36:48.628Z,100865.87
2019-05-10T08:39:18.771Z,100874.95
2019-05-10T08:42:03.705Z,100877.83
2019-05-10T08:44:23.769Z,100874.20
2019-05-10T08:46:54.251Z,100887.25
2019-05-10T08:49:30.779Z,100883.70
2019-05-10T08:51:56.481Z,100887.16
2019-05-10T08:54:26.820Z,100890.60
2019-05-10T08:57:01.060Z,100900.69
2019-05-10T08:59:30.875Z,100897.73
2019-05-10T09:02:02.103Z,100901.80
2019-05-10T09:04:41.652Z,100906.73
2019-05-10T09:07:04.466Z,100905.10
2019-05-10T09:09:45.623Z,100899.06
2019-05-10T09:12:09.277Z,100914.50
2019-05-10T09:14:39.018Z,100913.69
2019-05-10T09:17:14.909Z,100920.23
2019-05-10T09:19:44.124Z,100917.58
2019-05-10T09:22:13.509Z,100917.98
2019-05-10T09:24:48.703Z,100923.12
2019-05-10T09:27:15.624Z,100925.66
2019-05-10T09:29:46.567Z,100925.22
2019-05-10T09:32:21.452Z,100929.55
2019-05-10T09:34:48.578Z,100936.88
2019-05-10T09:37:18.982Z,100933.39
2019-05-10T09:39:54.973Z,100939.10
2019-05-10T09:42:26.536Z,100937.75
2019-05-10T09:44:53.112Z,100934.51
2019-05-10T09:47:23.253Z,100932.83
2019-05-10T09:49:58.670Z,100937.38
2019-05-10T09:52:25.434Z,100938.95
2019-05-10T09:54:56.973Z,100939.95
2019-05-10T09:57:27.930Z,100947.64
2019-05-10T09:59:58.312Z,100946.72
2019-05-10T10:02:33.938Z,100951.13
2019-05-10T10:05:01.287Z,100949.59
2019-05-10T10:07:33.461Z,100950.09
2019-05-10T10:10:03.551Z,100952.86
2019-05-10T10:12:33.783Z,100969.50
2019-05-10T10:15:04.036Z,100960.88
2019-05-10T10:17:38.665Z,100972.84
2019-05-10T10:20:08.607Z,100971.44
2019-05-10T10:22:43.255Z,100971.62
2019-05-10T10:25:10.841Z,100986.10
2019-05-10T10:27:40.986Z,100981.75
2019-05-10T10:30:14.944Z,100996.16
2019-05-10T10:32:44.581Z,100991.98
2019-05-10T10:35:21.023Z,100999.25
2019-05-10T10:37:48.782Z,101000.72
2019-05-10T10:40:19.096Z,100999.02
2019-05-10T10:42:49.401Z,101003.47
2019-05-10T10:45:19.994Z,100999.48
2019-05-10T10:47:50.332Z,100992.41
2019-05-10T10:50:20.631Z,100998.39
2019-05-10T10:52:50.853Z,101004.62
2019-05-10T10:55:21.206Z,101004.09
2019-05-10T10:57:51.484Z,100999.20
2019-05-10T11:00:34.229Z,101008.82
2019-05-10T11:03:05.685Z,101009.87
2019-05-10T11:05:35.988Z,101011.61
2019-05-10T11:08:07.018Z,101016.92
2019-05-10T11:10:37.278Z,101020.48
2019-05-10T11:13:13.268Z,101027.81
2019-05-10T11:15:41.951Z,101040.30
2019-05-10T11:18:11.902Z,101037.27
2019-05-10T11:20:49.276Z,101033.98
2019-05-10T11:23:16.160Z,101038.13
2019-05-10T11:25:54.706Z,101032.17
2019-05-10T11:28:20.546Z,101036.60
2019-05-10T11:30:51.191Z,101035.98
2019-05-10T11:33:27.200Z,101035.03
2019-05-10T11:35:57.702Z,101038.36
2019-05-10T11:38:25.644Z,101041.76
2019-05-10T11:40:56.028Z,101040.64
2019-05-10T11:43:27.156Z,101045.84
2019-05-10T11:45:57.518Z,101046.03
2019-05-10T11:48:29.030Z,101048.05
2019-05-10T11:50:59.837Z,101042.47
2019-05-10T11:53:31.518Z,101045.47
2019-05-10T11:56:02.365Z,101041.10
2019-05-10T11:58:37.748Z,101049.34
2019-05-10T12:01:14.817Z,101045.79
2019-05-10T12:03:42.172Z,101043.81
2019-05-10T12:06:12.172Z,101046.66
2019-05-10T12:08:42.657Z,101039.56
2019-05-10T12:11:27.615Z,101040.89
2019-05-10T12:13:45.019Z,101043.87
2019-05-10T12:16:16.689Z,101052.43
2019-05-10T12:19:05.572Z,101046.57
2019-05-10T12:21:21.718Z,101051.50
2019-05-10T12:23:56.000Z,101049.77
2019-05-10T12:29:02.783Z,101056.02
2019-05-10T12:31:31.096Z,101053.61
2019-05-10T12:34:08.867Z,101060.61
2019-05-10T12:36:33.435Z,101052.38
2019-05-10T12:39:04.787Z,101070.22
2019-05-10T12:41:39.671Z,101064.34
2019-05-10T12:44:07.616Z,101071.37
2019-05-10T12:49:14.994Z,101068.57
2019-05-10T12:51:45.349Z,101078.44
2019-05-10T12:54:18.489Z,101075.38
2019-05-10T12:56:47.723Z,101073.33
2019-05-10T12:59:18.107Z,101072.99
2019-05-10T13:01:48.522Z,101074.36
2019-05-10T13:04:18.825Z,101070.86
2019-05-10T13:06:49.146Z,101080.09
2019-05-10T13:09:35.639Z,101094.02
2019-05-10T13:11:51.413Z,101094.97
2019-05-10T13:14:21.678Z,101096.62
2019-05-10T13:16:51.987Z,101103.31
2019-05-10T13:19:22.299Z,101098.55
2019-05-10T13:21:53.813Z,101094.91
2019-05-10T13:24:24.649Z,101103.58
2019-05-10T13:26:54.919Z,101113.80
2019-05-10T13:29:25.145Z,101121.44
2019-05-10T13:31:56.721Z,101125.16
2019-05-10T13:34:27.191Z,101132.88
2019-05-10T13:36:57.472Z,101139.59
2019-05-10T13:39:27.830Z,101136.73
2019-05-10T13:42:03.336Z,101142.31
2019-05-10T13:44:30.157Z,101134.84
2019-05-10T13:47:00.360Z,101134.30
2019-05-10T13:49:30.623Z,101146.88
2019-05-10T13:52:00.987Z,101147.12
2019-05-10T13:54:36.317Z,101151.26
2019-05-10T13:57:03.637Z,101154.72
2019-05-10T13:59:34.430Z,101158.75
2019-05-10T14:02:04.898Z,101151.49
2019-05-10T14:04:38.644Z,101163.89
2019-05-10T14:07:07.451Z,101166.43
2019-05-10T14:09:37.814Z,101167.55
2019-05-10T14:12:08.169Z,101164.09
2019-05-10T14:14:38.591Z,101171.56
2019-05-10T14:17:09.026Z,101170.23
2019-05-10T14:19:39.305Z,101177.01
2019-05-10T14:22:09.572Z,101173.84
2019-05-10T14:24:39.867Z,101177.81
2019-05-10T14:27:10.151Z,101173.16
2019-05-10T14:29:40.353Z,101170.59
2019-05-10T14:32:10.635Z,101168.58
2019-05-10T14:34:44.224Z,101172.75
2019-05-10T14:37:14.105Z,101175.87
2019-05-10T14:39:44.804Z,101179.05
2019-05-10T14:42:15.155Z,101185.86
2019-05-10T14:44:45.553Z,101184.64
2019-05-10T14:47:15.865Z,101189.92
2019-05-10T14:49:47.090Z,101180.42
2019-05-10T14:52:18.176Z,101191.30
2019-05-10T14:54:49.701Z,101193.02
2019-05-10T14:57:20.498Z,101187.92
2019-05-10T14:59:50.793Z,101185.53
2019-05-10T15:02:22.760Z,101190.15
2019-05-10T15:04:53.212Z,101191.49
2019-05-10T15:07:23.629Z,101200.56
2019-05-10T15:09:59.813Z,101201.33
2019-05-10T15:12:25.922Z,101200.64
2019-05-10T15:14:56.212Z,101210.62
2019-05-10T15:17:30.285Z,101212.86
2019-05-10T15:20:00.736Z,101213.55
2019-05-10T15:22:30.976Z,101214.59
2019-05-10T15:25:01.259Z,101210.74
2019-05-10T15:27:31.630Z,101210.51
2019-05-10T15:30:05.330Z,101206.28
2019-05-10T15:32:34.038Z,101209.98
2019-05-10T15:35:07.607Z,101207.48
2019-05-10T15:37:40.701Z,101205.38
2019-05-10T15:40:09.777Z,101205.50
2019-05-10T15:42:40.194Z,101207.75
2019-05-10T15:45:14.241Z,101209.57
2019-05-10T15:47:51.107Z,101217.05
2019-05-10T15:50:16.844Z,101204.42
2019-05-10T15:52:48.806Z,101206.82
2019-05-10T15:55:26.820Z,101208.58
2019-05-10T15:57:57.480Z,101211.91
2019-05-10T16:00:25.437Z,101206.37
2019-05-10T16:02:56.434Z,101210.22
2019-05-10T16:05:42.365Z,101213.56
2019-05-10T16:07:59.551Z,101217.78
2019-05-10T16:10:38.819Z,101224.72
2019-05-10T16:13:02.433Z,101228.23
2019-05-10T16:15:32.970Z,101230.27
2019-05-10T16:18:03.590Z,101228.03
2019-05-10T16:20:37.266Z,101228.57
2019-05-10T16:23:08.700Z,101232.82
2019-05-10T16:25:47.549Z,101226.75
2019-05-10T16:28:15.380Z,101224.33
2019-05-10T16:30:47.034Z,101225.75
2019-05-10T16:33:18.294Z,101230.13
2019-05-10T16:35:50.337Z,101237.16
2019-05-10T16:38:21.314Z,101233.53
2019-05-10T16:40:58.525Z,101228.86
2019-05-10T16:43:24.910Z,101233.63
2019-05-10T16:45:56.023Z,101233.49
2019-05-10T16:48:28.444Z,101235.23
2019-05-10T16:51:03.755Z,101242.45
2019-05-10T16:53:31.756Z,101244.34
2019-05-10T16:56:02.264Z,101241.38
2019-05-10T16:58:32.982Z,101236.65
2019-05-10T17:01:03.573Z,101234.75
2019-05-10T17:03:34.056Z,101235.66
2019-05-10T17:06:05.747Z,101234.25
2019-05-10T17:08:38.615Z,101234.22
2019-05-10T17:11:10.208Z,101228.14
2019-05-10T17:16:37.118Z,101228.48
2019-05-10T17:19:07.578Z,101230.98
2019-05-10T17:21:38.249Z,101232.42
2019-05-10T17:24:08.968Z,101226.05
2019-05-10T17:26:39.309Z,101230.84
2019-05-10T17:29:12.969Z,101230.91
2019-05-10T17:31:45.676Z,101231.98
2019-05-10T17:34:22.134Z,101230.16
2019-05-10T17:36:45.764Z,101232.09
2019-05-10T17:39:16.085Z,101238.97
2019-05-10T17:41:46.355Z,101235.88
2019-05-10T17:44:17.571Z,101229.25
2019-05-10T17:46:54.725Z,101223.98
2019-05-10T17:49:21.037Z,101226.98
2019-05-10T17:51:51.517Z,101224.37
2019-05-10T17:54:22.234Z,101222.53
2019-05-10T17:56:52.848Z,101223.61
2019-05-10T17:59:23.733Z,101227.76
2019-05-10T18:01:54.422Z,101235.53
2019-05-10T18:04:25.050Z,101236.73
2019-05-10T18:06:55.607Z,101234.13
2019-05-10T18:09:26.334Z,101225.92
2019-05-10T18:11:56.876Z,101233.41
2019-05-10T18:14:29.471Z,101237.43
2019-05-10T18:16:59.236Z,101238.30
2019-05-10T18:19:29.630Z,101238.00
2019-05-10T18:22:02.629Z,101235.66
2019-05-10T18:24:36.371Z,101248.30
2019-05-10T18:27:04.029Z,101255.03
2019-05-10T18:29:34.316Z,101248.21
2019-05-10T18:32:04.690Z,101246.73
2019-05-10T18:34:35.511Z,101254.94
2019-05-10T18:37:07.349Z,101249.18
2019-05-10T18:39:37.594Z,101265.64
2019-05-10T18:42:07.955Z,101269.02
2019-05-10T18:44:38.308Z,101276.26
2019-05-10T18:47:08.573Z,101281.83
2019-05-10T18:49:38.857Z,101280.68
2019-05-10T18:52:09.304Z,101278.93
2019-05-10T18:54:39.536Z,101281.40
2019-05-10T18:57:11.584Z,101286.22
2019-05-10T18:59:45.296Z,101286.88
2019-05-10T19:02:17.787Z,101292.91
2019-05-10T19:04:52.039Z,101293.84
2019-05-10T19:07:18.763Z,101299.91
2019-05-10T19:09:48.950Z,101297.56
2019-05-10T19:12:22.115Z,101304.39
2019-05-10T19:14:51.237Z,101298.41
2019-05-10T19:17:21.599Z,101311.28
2019-05-10T19:19:51.996Z,101315.36
2019-05-10T19:22:22.354Z,101318.93
2019-05-10T19:24:56.329Z,101324.25
2019-05-10T19:27:25.156Z,101331.72
2019-05-10T19:29:57.768Z,101333.44
2019-05-10T19:32:28.096Z,101332.56
2019-05-10T19:34:59.099Z,101336.91
2019-05-10T19:37:34.134Z,101339.03
2019-05-10T19:40:01.884Z,101344.23
2019-05-10T19:42:37.100Z,101345.05
2019-05-10T19:45:04.387Z,101345.83
2019-05-10T19:47:34.839Z,101352.71
2019-05-10T19:50:05.597Z,101353.50
2019-05-10T19:52:35.961Z,101357.36
2019-05-10T19:55:06.935Z,101362.09
2019-05-10T19:57:37.208Z,101365.05
2019-05-10T20:00:08.574Z,101367.60
2019-05-10T20:02:38.886Z,101372.80
2019-05-10T20:05:09.376Z,101370.98
2019-05-10T20:07:45.716Z,101372.67
2019-05-10T20:10:12.175Z,101377.38
2019-05-10T20:12:42.941Z,101385.63
2019-05-10T20:15:13.413Z,101392.98
2019-05-10T20:17:43.831Z,101387.66
2019-05-10T20:20:14.356Z,101394.57
2019-05-10T20:22:44.631Z,101395.86
2019-05-10T20:25:15.263Z,101403.28
2019-05-10T20:27:45.625Z,101408.13
2019-05-10T20:30:16.404Z,101408.67
2019-05-10T20:32:46.680Z,101407.84
2019-05-10T20:35:16.986Z,101403.91
2019-05-10T20:38:00.703Z,101408.70
2019-05-10T20:40:21.303Z,101398.09
2019-05-10T20:42:52.070Z,101395.31
2019-05-10T20:45:22.639Z,101400.45
2019-05-10T20:47:53.224Z,101376.99
2019-05-10T20:50:23.652Z,101388.75
2019-05-10T20:52:57.396Z,101391.22
2019-05-10T20:55:28.335Z,101391.09
2019-05-10T20:57:58.873Z,101382.67
2019-05-10T21:00:29.341Z,101379.49
2019-05-10T21:02:59.951Z,101373.69
2019-05-10T21:05:30.378Z,101372.25
2019-05-10T21:08:15.812Z,101374.73
2019-05-10T21:10:33.147Z,101370.23
2019-05-10T21:13:03.692Z,101366.59
2019-05-10T21:15:34.464Z,101372.19
2019-05-10T21:18:06.436Z,101367.83
2019-05-10T21:20:36.922Z,101357.22
2019-05-10T21:23:07.285Z,101356.20
2019-05-10T21:25:37.796Z,101358.70
2019-05-10T21:28:08.270Z,101357.72
2019-05-10T21:30:38.698Z,101358.47
2019-05-10T21:33:08.946Z,101358.34
2019-05-10T21:35:39.322Z,101354.73
2019-05-10T21:38:09.837Z,101355.95
2019-05-10T21:40:40.040Z,101364.14
2019-05-10T21:43:10.325Z,101366.20
2019-05-10T21:45:40.727Z,101366.17
2019-05-10T21:48:11.011Z,101365.50
2019-05-10T21:50:41.313Z,101366.20
2019-05-10T21:53:11.603Z,101367.81
2019-05-10T21:55:41.820Z,101366.41
2019-05-10T21:58:12.103Z,101369.33
2019-05-10T22:00:46.083Z,101370.06
2019-05-10T22:03:16.913Z,101365.55
2019-05-10T22:05:47.264Z,101369.80
2019-05-10T22:08:17.551Z,101370.14
2019-05-10T22:10:47.833Z,101375.70
2019-05-10T22:13:18.148Z,101377.34
2019-05-10T22:15:48.399Z,101374.64
2019-05-10T22:18:18.716Z,101377.59
2019-05-10T22:20:49.016Z,101375.80
2019-05-10T22:23:19.317Z,101374.78
2019-05-10T22:25:49.452Z,101384.78
2019-05-10T22:28:19.858Z,101381.35
2019-05-10T22:30:50.172Z,101385.42
2019-05-10T22:33:20.502Z,101379.13
2019-05-10T22:35:50.725Z,101382.41
2019-05-10T22:38:21.118Z,101380.50
2019-05-10T22:40:51.463Z,101378.08
2019-05-10T22:43:21.823Z,101376.08
2019-05-10T22:45:52.054Z,101377.12
2019-05-10T22:48:22.275Z,101371.50
2019-05-10T22:50:52.549Z,101366.67
2019-05-10T22:53:22.850Z,101375.73
2019-05-10T22:55:53.305Z,101372.51
2019-05-10T22:58:23.587Z,101379.29
2019-05-10T23:00:54.177Z,101373.81
2019-05-10T23:03:24.956Z,101369.75
2019-05-10T23:05:55.231Z,101372.61
2019-05-10T23:08:25.513Z,101371.59
2019-05-10T23:10:55.941Z,101375.31
2019-05-10T23:13:26.268Z,101366.46
2019-05-10T23:15:56.688Z,101369.80
2019-05-10T23:18:26.925Z,101366.59
2019-05-10T23:20:57.702Z,101366.88
2019-05-10T23:23:28.050Z,101368.47
2019-05-10T23:25:58.433Z,101373.58
2019-05-10T23:28:28.768Z,101368.20
2019-05-10T23:30:59.210Z,101369.84
2019-05-10T23:33:29.610Z,101377.59
2019-05-10T23:36:07.436Z,101377.88
2019-05-10T23:38:37.685Z,101376.47
2019-05-10T23:41:08.078Z,101371.53
2019-05-10T23:43:38.373Z,101370.09
2019-05-10T23:46:08.562Z,101376.02
2019-05-10T23:48:38.782Z,101374.16
2019-05-10T23:51:09.550Z,101366.22
2019-05-10T23:53:40.071Z,101371.77
2019-05-10T23:56:15.423Z,101362.96
2019-05-10T23:58:45.596Z,101363.27
